Time;durP1;ratioP1;P1;durP2;ratioP2;P2;SDS_P1;SDS_P2;PMS_P1;PMS_P2;Temp;Humidity;BMP_temperature;BMP_pressure;BME280_temperature;BME280_humidity;BME280_pressure;Samples;Min_cycle;Max_cycle;Signal;HPM_P1;HPM_P2
2021/05/01 00:01:39;;;;;;;11.18;6.78;;;;;;;13.22;83.20;99891.11;1690567;85;21303;-67
2021/05/01 00:04:08;;;;;;;14.18;7.17;;;;;;;13.18;83.18;99896.23;1690443;85;21082;-68
2021/05/01 00:06:36;;;;;;;16.25;8.75;;;;;;;13.17;83.14;99899.20;1690406;85;21054;-68
2021/05/01 00:09:05;;;;;;;19.95;9.93;;;;;;;13.14;83.07;99903.75;1690432;85;21335;-67
2021/05/01 00:11:32;;;;;;;16.75;9.43;;;;;;;13.14;82.97;99903.75;1672900;84;21113;-67
2021/05/01 00:14:00;;;;;;;18.55;12.00;;;;;;;13.10;83.00;99903.36;1690070;85;21094;-67
2021/05/01 00:16:28;;;;;;;17.55;12.10;;;;;;;13.08;83.07;99901.91;1668897;85;21113;-67
2021/05/01 00:18:58;;;;;;;16.40;10.60;;;;;;;13.09;83.19;99906.34;1644697;87;21118;-68
2021/05/01 00:21:26;;;;;;;14.98;9.70;;;;;;;13.08;83.09;99900.00;1689946;85;21312;-67
2021/05/01 00:23:54;;;;;;;13.83;8.48;;;;;;;13.08;83.07;99900.53;1673170;85;21815;-68
2021/05/01 00:26:21;;;;;;;14.70;9.08;;;;;;;13.09;83.04;99896.18;1697359;84;21337;-68
2021/05/01 00:28:48;;;;;;;17.95;9.80;;;;;;;13.12;83.11;99899.02;1697337;84;21086;-68
2021/05/01 00:31:18;;;;;;;13.70;8.60;;;;;;;13.11;82.87;99893.20;1697314;84;21188;-66
2021/05/01 00:33:45;;;;;;;15.05;7.50;;;;;;;13.08;82.50;99892.28;1697489;84;22177;-67
2021/05/01 00:36:13;;;;;;;15.75;9.05;;;;;;;13.03;82.21;99892.13;1697390;84;21034;-67
2021/05/01 00:38:40;;;;;;;14.68;8.65;;;;;;;12.97;82.14;99891.92;1673231;85;21105;-67
2021/05/01 00:41:08;;;;;;;15.05;8.28;;;;;;;12.94;82.08;99900.63;1690187;83;21336;-67
2021/05/01 00:43:41;;;;;;;13.10;7.83;;;;;;;12.89;81.91;99899.09;1668906;86;21089;-67
2021/05/01 00:46:09;;;;;;;16.32;8.23;;;;;;;12.81;81.66;99905.40;1676471;84;21112;-68
2021/05/01 00:48:36;;;;;;;14.00;8.40;;;;;;;12.74;81.69;99910.11;1680916;84;21264;-69
2021/05/01 00:51:05;;;;;;;13.55;7.58;;;;;;;12.63;81.64;99907.02;1680974;84;21069;-66
2021/05/01 00:53:33;;;;;;;11.38;7.15;;;;;;;12.58;81.89;99908.75;1680716;85;21260;-67
2021/05/01 00:56:00;;;;;;;12.03;6.80;;;;;;;12.53;81.92;99920.42;1681172;84;21306;-67
2021/05/01 00:58:29;;;;;;;13.88;7.00;;;;;;;12.49;81.98;99916.43;1681327;85;21319;-68
2021/05/01 01:01:14;;;;;;;12.07;7.70;;;;;;;12.44;82.00;99914.88;1681405;85;21364;-67
2021/05/01 01:03:25;;;;;;;12.20;7.37;;;;;;;12.41;82.08;99922.72;1678163;84;21354;-69
2021/05/01 01:05:54;;;;;;;14.65;7.83;;;;;;;12.32;82.19;99922.95;1681033;85;21085;-68
2021/05/01 01:08:22;;;;;;;13.78;7.62;;;;;;;12.26;82.35;99922.99;1680962;85;21347;-68
2021/05/01 01:10:49;;;;;;;16.95;7.75;;;;;;;12.23;82.59;99921.53;1680930;85;21103;-68
2021/05/01 01:13:17;;;;;;;14.13;8.43;;;;;;;12.24;82.77;99921.00;1681004;84;21338;-66
2021/05/01 01:15:44;;;;;;;12.70;7.45;;;;;;;12.24;82.89;99921.00;1705086;84;21085;-67
2021/05/01 01:18:11;;;;;;;14.58;7.20;;;;;;;12.23;82.96;99927.55;1704895;84;21313;-68
2021/05/01 01:20:39;;;;;;;11.20;7.42;;;;;;;12.22;82.97;99928.09;1705029;84;21057;-68
2021/05/01 01:23:06;;;;;;;14.30;8.00;;;;;;;12.23;82.91;99938.55;1704906;84;21295;-67
2021/05/01 01:25:34;;;;;;;12.50;7.58;;;;;;;12.20;82.82;99942.57;1704679;84;21109;-68
2021/05/01 01:28:04;;;;;;;13.45;7.85;;;;;;;12.19;82.83;99940.88;1704737;84;21087;-66
2021/05/01 01:30:32;;;;;;;14.98;8.03;;;;;;;12.16;82.71;99944.07;1692243;84;21088;-67
2021/05/01 01:33:05;;;;;;;19.80;9.28;;;;;;;12.17;82.72;99943.01;1675786;85;21114;-69
2021/05/01 01:35:34;;;;;;;25.17;10.05;;;;;;;12.16;82.57;99942.70;1675789;85;21357;-67
2021/05/01 01:38:01;;;;;;;17.42;9.18;;;;;;;12.11;82.57;99945.26;1675844;84;21060;-67
2021/05/01 01:40:29;;;;;;;16.62;9.70;;;;;;;12.09;82.69;99952.88;1675831;85;21085;-67
2021/05/01 01:42:57;;;;;;;23.07;9.75;;;;;;;12.10;82.69;99959.20;1675851;84;21109;-66
2021/05/01 01:45:29;;;;;;;19.75;9.28;;;;;;;12.10;82.63;99949.06;1674108;85;21133;-67
2021/05/01 01:47:57;;;;;;;21.37;9.60;;;;;;;12.10;82.52;99955.94;1666390;86;21098;-68
2021/05/01 01:50:25;;;;;;;18.70;9.60;;;;;;;12.10;82.37;99961.42;1666481;84;21096;-67
2021/05/01 01:52:53;;;;;;;15.90;9.28;;;;;;;12.06;82.21;99961.55;1666532;86;21371;-67
2021/05/01 01:55:21;;;;;;;15.93;8.88;;;;;;;11.99;82.10;99962.11;1666327;86;21291;-66
2021/05/01 01:57:49;;;;;;;18.95;8.70;;;;;;;11.97;82.16;99966.45;1666345;86;21057;-67
2021/05/01 02:00:20;;;;;;;16.12;9.30;;;;;;;11.99;82.16;99971.72;1666116;84;21050;-67
2021/05/01 02:02:48;;;;;;;14.98;10.03;;;;;;;11.97;82.07;99973.84;1666345;86;21335;-67
2021/05/01 02:05:16;;;;;;;18.67;10.43;;;;;;;11.94;82.01;99979.77;1666378;85;21884;-68
2021/05/01 02:07:45;;;;;;;23.12;9.63;;;;;;;11.90;81.95;99980.73;1619760;88;21074;-67
2021/05/01 02:10:13;;;;;;;17.77;8.98;;;;;;;11.85;81.90;99983.28;1669699;84;21357;-67
2021/05/01 02:12:41;;;;;;;16.48;9.35;;;;;;;11.84;81.84;99995.84;1669974;84;21311;-68
2021/05/01 02:15:16;;;;;;;17.77;9.25;;;;;;;11.75;81.77;99989.19;1669044;86;21082;-67
2021/05/01 02:17:47;;;;;;;16.97;9.60;;;;;;;11.73;81.97;99995.42;1617930;87;21045;-66
2021/05/01 02:20:23;;;;;;;18.75;8.75;;;;;;;11.68;82.01;99997.09;1668987;86;21311;-67
2021/05/01 02:22:50;;;;;;;19.52;9.60;;;;;;;11.68;82.23;99995.19;1668808;85;21200;-66
2021/05/01 02:25:18;;;;;;;17.10;9.00;;;;;;;11.68;82.12;99993.82;1668853;85;21050;-68
2021/05/01 02:27:45;;;;;;;16.45;9.48;;;;;;;11.65;82.15;100006.60;1669034;86;21337;-67
2021/05/01 02:30:18;;;;;;;16.00;10.23;;;;;;;11.62;82.17;100001.55;1649369;86;21375;-66
2021/05/01 02:32:46;;;;;;;20.30;10.40;;;;;;;11.57;82.23;99999.97;1669016;86;21058;-65
2021/05/01 02:35:16;;;;;;;17.30;8.85;;;;;;;11.56;82.37;99999.66;1668961;85;21308;-66
2021/05/01 02:37:44;;;;;;;21.40;10.70;;;;;;;11.53;82.18;100001.45;1669041;84;21088;-66
2021/05/01 02:40:12;;;;;;;21.77;10.95;;;;;;;11.48;82.04;100006.73;1668946;84;21061;-67
2021/05/01 02:42:40;;;;;;;17.87;10.25;;;;;;;11.43;82.13;99998.30;1669058;85;21395;-68
2021/05/01 02:45:10;;;;;;;15.80;9.20;;;;;;;11.41;82.27;100009.49;1668936;84;21362;-67
2021/05/01 02:47:37;;;;;;;18.23;9.15;;;;;;;11.38;82.35;100007.17;1680061;85;21131;-66
2021/05/01 02:50:07;;;;;;;26.12;12.47;;;;;;;11.38;82.39;100007.17;1680991;84;21224;-67
2021/05/01 02:52:34;;;;;;;29.55;14.63;;;;;;;11.39;82.39;100007.48;1680899;84;21296;-66
2021/05/01 02:55:03;;;;;;;24.20;12.05;;;;;;;11.39;82.45;100013.50;1680579;85;21789;-66
2021/05/01 02:57:30;;;;;;;22.77;11.53;;;;;;;11.40;82.58;100017.94;1707975;84;21280;-66
2021/05/01 03:00:02;;;;;;;21.00;11.15;;;;;;;11.42;82.56;100018.56;1681060;85;21116;-66
2021/05/01 03:02:28;;;;;;;17.73;9.78;;;;;;;11.44;82.50;100026.89;1702874;84;21479;-69
2021/05/01 03:04:56;;;;;;;22.62;11.55;;;;;;;11.48;82.33;100031.43;1702815;84;21095;-67
2021/05/01 03:07:23;;;;;;;20.48;11.40;;;;;;;11.47;82.33;100024.25;1702645;84;21333;-66
2021/05/01 03:09:51;;;;;;;21.73;11.10;;;;;;;11.47;82.39;100030.27;1702689;84;21073;-68
2021/05/01 03:12:18;;;;;;;18.65;10.20;;;;;;;11.48;82.56;100033.33;1680858;84;21105;-67
2021/05/01 03:14:46;;;;;;;18.75;10.80;;;;;;;11.51;82.69;100037.86;1680613;85;21348;-67
2021/05/01 03:17:13;;;;;;;17.90;9.98;;;;;;;11.57;82.93;100044.40;1680562;85;21157;-67
2021/05/01 03:19:42;;;;;;;24.00;12.63;;;;;;;11.62;83.11;100050.09;1707873;84;21783;-67
2021/05/01 03:22:10;;;;;;;19.52;10.70;;;;;;;11.65;83.30;100047.77;1702734;84;21438;-66
2021/05/01 03:24:38;;;;;;;16.17;10.08;;;;;;;11.68;83.19;100051.98;1702855;84;21058;-66
2021/05/01 03:27:06;;;;;;;17.02;9.50;;;;;;;11.71;83.15;100043.35;1702854;84;21053;-67
2021/05/01 03:29:35;;;;;;;18.87;10.68;;;;;;;11.75;83.09;100060.55;1702886;84;21228;-68
2021/05/01 03:32:03;;;;;;;22.22;11.80;;;;;;;11.77;82.95;100055.38;1702858;84;21336;-66
2021/05/01 03:34:30;;;;;;;18.77;10.70;;;;;;;11.78;82.92;100058.47;1702525;84;21363;-66
2021/05/01 03:36:57;;;;;;;16.65;10.08;;;;;;;11.81;83.01;100066.27;1680861;85;21367;-66
2021/05/01 03:39:25;;;;;;;18.37;10.50;;;;;;;11.87;83.16;100062.67;1702612;84;21360;-66
2021/05/01 03:41:52;;;;;;;19.25;9.85;;;;;;;11.93;83.11;100064.03;1702723;83;21312;-67
2021/05/01 03:44:19;;;;;;;16.80;10.75;;;;;;;11.96;83.17;100069.09;1702689;84;21188;-66
2021/05/01 03:46:47;;;;;;;18.32;9.80;;;;;;;11.98;83.32;100066.13;1703678;84;21327;-69
2021/05/01 03:49:14;;;;;;;15.78;9.08;;;;;;;12.02;83.43;100070.13;1704698;84;21375;-67
2021/05/01 03:51:42;;;;;;;17.42;9.95;;;;;;;12.08;83.43;100072.55;1704734;84;21097;-67
2021/05/01 03:54:10;;;;;;;16.55;11.18;;;;;;;12.12;83.43;100077.39;1704895;84;21317;-67
2021/05/01 03:56:37;;;;;;;19.57;11.35;;;;;;;12.15;83.40;100082.45;1704680;84;21348;-67
2021/05/01 03:59:05;;;;;;;19.02;11.63;;;;;;;12.19;83.45;100086.45;1704837;84;21211;-67
2021/05/01 04:01:32;;;;;;;15.70;9.63;;;;;;;12.21;83.39;100089.83;1704664;84;21330;-68
2021/05/01 04:04:00;;;;;;;19.20;12.40;;;;;;;12.24;83.28;100090.77;1704635;84;21073;-68
2021/05/01 04:06:27;;;;;;;16.07;10.98;;;;;;;12.30;83.19;100094.55;1704832;84;21314;-67
2021/05/01 04:08:56;;;;;;;15.78;10.93;;;;;;;12.34;83.13;100091.69;1704669;84;21338;-67
2021/05/01 04:11:23;;;;;;;16.75;10.78;;;;;;;12.37;83.12;100096.25;1704734;84;21305;-67
2021/05/01 04:13:51;;;;;;;18.00;10.13;;;;;;;12.40;83.02;100100.47;1704680;84;21397;-69
2021/05/01 04:16:18;;;;;;;14.68;9.70;;;;;;;12.43;82.92;100094.54;1704666;84;21333;-66
2021/05/01 04:18:47;;;;;;;15.58;10.23;;;;;;;12.46;82.82;100104.25;1704606;84;21690;-67
2021/05/01 04:21:15;;;;;;;15.08;9.80;;;;;;;12.49;82.81;100099.70;1704604;84;21336;-67
2021/05/01 04:23:43;;;;;;;15.85;10.68;;;;;;;12.52;82.87;100107.50;1709521;84;21780;-67
2021/05/01 04:26:11;;;;;;;13.40;9.00;;;;;;;12.56;82.83;100106.01;1709365;84;21197;-66
2021/05/01 04:28:39;;;;;;;16.17;10.08;;;;;;;12.58;82.68;100104.73;1709588;84;21323;-65
2021/05/01 04:31:06;;;;;;;14.98;9.88;;;;;;;12.62;82.61;100110.63;1675096;85;21115;-68
2021/05/01 04:33:34;;;;;;;17.45;9.98;;;;;;;12.64;82.61;100109.88;1650008;85;21275;-68
2021/05/01 04:36:03;;;;;;;14.70;9.78;;;;;;;12.67;82.67;100112.20;1649650;87;21345;-69
2021/05/01 04:38:30;;;;;;;13.83;9.28;;;;;;;12.68;82.71;100105.63;1621789;87;21358;-67
2021/05/01 04:40:59;;;;;;;15.93;10.18;;;;;;;12.72;82.79;100111.54;1649608;87;21362;-67
2021/05/01 04:43:27;;;;;;;16.60;11.22;;;;;;;12.77;82.78;100108.98;1622050;87;21198;-67
2021/05/01 04:45:55;;;;;;;17.35;11.65;;;;;;;12.79;82.87;100117.84;1650023;87;21281;-67
2021/05/01 04:48:22;;;;;;;15.85;12.07;;;;;;;12.83;83.00;100118.56;1619782;87;21270;-68
2021/05/01 04:50:51;;;;;;;20.10;11.85;;;;;;;12.86;83.08;100111.25;1673391;85;21099;-67
2021/05/01 04:53:19;;;;;;;17.55;10.13;;;;;;;12.90;83.16;100111.13;1673274;85;21802;-68
2021/05/01 04:55:46;;;;;;;18.85;10.88;;;;;;;12.95;83.21;100109.93;1673358;85;21358;-67
2021/05/01 04:58:14;;;;;;;15.30;10.68;;;;;;;12.99;83.20;100105.67;1673345;85;21054;-66
2021/05/01 05:00:42;;;;;;;17.05;11.55;;;;;;;13.01;83.26;100103.58;1673375;84;21335;-66
2021/05/01 05:03:10;;;;;;;18.87;10.40;;;;;;;13.03;83.32;100106.11;1673440;85;21381;-69
2021/05/01 05:05:38;;;;;;;15.00;10.63;;;;;;;13.08;83.36;100105.45;1673394;85;21849;-67
2021/05/01 05:08:05;;;;;;;15.35;10.72;;;;;;;13.14;83.40;100104.03;1673391;85;21819;-70
2021/05/01 05:10:33;;;;;;;17.17;10.93;;;;;;;13.20;83.50;100098.20;1673453;85;21109;-67
2021/05/01 05:13:00;;;;;;;19.60;11.70;;;;;;;13.25;83.56;100100.59;1673403;85;21799;-68
2021/05/01 05:15:28;;;;;;;18.07;11.48;;;;;;;13.30;83.56;100095.80;1673540;85;21069;-67
2021/05/01 05:17:56;;;;;;;20.57;10.93;;;;;;;13.33;83.59;100100.33;1673503;84;21101;-67
2021/05/01 05:20:23;;;;;;;18.98;12.10;;;;;;;13.39;83.65;100101.34;1673129;84;21327;-68
2021/05/01 05:22:51;;;;;;;20.70;12.43;;;;;;;13.46;83.74;100106.26;1673042;85;21081;-66
2021/05/01 05:25:18;;;;;;;19.42;13.13;;;;;;;13.53;83.85;100109.80;1673131;85;21252;-67
2021/05/01 05:27:46;;;;;;;28.35;15.60;;;;;;;13.58;83.97;100108.59;1673003;85;22084;-69
2021/05/01 05:30:14;;;;;;;27.55;17.35;;;;;;;13.66;84.04;100107.50;1673108;85;21207;-67
2021/05/01 05:32:42;;;;;;;21.57;15.53;;;;;;;13.72;84.06;100100.25;1673082;85;21093;-68
2021/05/01 05:35:09;;;;;;;21.62;14.70;;;;;;;13.78;84.13;100100.19;1673060;84;21384;-67
2021/05/01 05:37:37;;;;;;;22.32;15.48;;;;;;;13.84;84.11;100099.82;1673038;85;21195;-66
2021/05/01 05:40:06;;;;;;;25.97;14.93;;;;;;;13.91;84.12;100103.35;1673029;85;21368;-68
2021/05/01 05:42:34;;;;;;;23.38;14.45;;;;;;;13.99;84.05;100103.06;1673096;85;21120;-66
2021/05/01 05:45:01;;;;;;;21.68;12.80;;;;;;;14.10;83.97;100105.59;1673077;85;21334;-67
2021/05/01 05:47:29;;;;;;;22.35;14.75;;;;;;;14.16;83.79;100106.91;1676165;84;21749;-66
2021/05/01 05:49:56;;;;;;;23.77;16.90;;;;;;;14.23;83.70;100102.70;1680508;85;21451;-66
2021/05/01 05:52:24;;;;;;;23.98;15.90;;;;;;;14.27;83.56;100099.25;1680588;84;21175;-66
2021/05/01 05:54:51;;;;;;;22.50;15.53;;;;;;;14.34;83.40;100109.39;1680618;85;21068;-65
2021/05/01 05:57:19;;;;;;;19.50;12.53;;;;;;;14.41;83.32;100104.64;1680529;85;21348;-67
2021/05/01 05:59:47;;;;;;;21.77;13.28;;;;;;;14.47;83.04;100107.36;1680444;85;21339;-67
2021/05/01 06:02:16;;;;;;;21.27;12.47;;;;;;;14.55;82.78;100111.72;1680384;85;21208;-66
2021/05/01 06:04:55;;;;;;;19.05;12.07;;;;;;;14.63;82.53;100117.45;1654882;85;21061;-67
2021/05/01 06:07:36;;;;;;;20.10;11.28;;;;;;;14.68;82.25;100104.66;1680310;85;21247;-67
2021/05/01 06:10:26;;;;;;;17.60;10.90;;;;;;;14.76;81.75;100105.72;1680388;85;21195;-68
2021/05/01 06:12:53;;;;;;;20.17;12.58;;;;;;;14.86;81.19;100107.38;1679224;85;21328;-70
2021/05/01 06:15:21;;;;;;;20.45;11.78;;;;;;;14.99;80.63;100111.91;1679136;85;21077;-69
2021/05/01 06:17:50;;;;;;;18.92;12.15;;;;;;;15.10;80.02;100115.79;1679176;85;21334;-67
2021/05/01 06:20:18;;;;;;;18.48;12.58;;;;;;;15.18;79.57;100120.98;1679257;85;21257;-69
2021/05/01 06:22:50;;;;;;;17.20;11.80;;;;;;;15.28;79.12;100122.63;1679137;85;21090;-68
2021/05/01 06:25:17;;;;;;;16.48;11.00;;;;;;;15.39;78.84;100112.16;1653118;85;21238;-68
2021/05/01 06:27:45;;;;;;;16.52;9.78;;;;;;;15.50;78.56;100109.96;1652895;86;21259;-69
2021/05/01 06:30:14;;;;;;;14.85;10.20;;;;;;;15.60;77.50;100114.09;1652845;86;21243;-69
2021/05/01 06:32:43;;;;;;;19.15;10.85;;;;;;;15.71;75.96;100118.83;1679048;85;21125;-68
2021/05/01 06:35:11;;;;;;;15.60;9.60;;;;;;;15.82;74.92;100122.98;1679295;85;21344;-68
2021/05/01 06:37:39;;;;;;;22.40;10.70;;;;;;;15.90;74.15;100128.69;1679179;85;21228;-69
2021/05/01 06:40:16;;;;;;;15.03;10.32;;;;;;;16.01;73.83;100129.23;1679280;85;21153;-68
2021/05/01 06:42:59;;;;;;;13.20;9.38;;;;;;;16.08;73.30;100133.27;1678178;84;21150;-67
2021/05/01 06:45:24;;;;;;;12.93;9.38;;;;;;;16.13;72.38;100143.06;1672013;85;21401;-68
2021/05/01 06:47:59;;;;;;;14.98;9.55;;;;;;;16.17;71.74;100140.95;1677706;85;21336;-67
2021/05/01 06:50:28;;;;;;;15.75;10.08;;;;;;;16.26;71.30;100141.46;1677597;85;21083;-68
2021/05/01 06:52:59;;;;;;;16.17;9.88;;;;;;;16.35;71.01;100142.77;1677912;85;21408;-66
2021/05/01 06:55:29;;;;;;;15.88;10.08;;;;;;;16.45;70.97;100139.40;1677749;85;21181;-67
2021/05/01 06:57:57;;;;;;;14.75;9.78;;;;;;;16.53;70.57;100147.32;1677808;85;21378;-67
2021/05/01 07:00:26;;;;;;;10.70;7.85;;;;;;;16.60;69.68;100146.64;1677755;85;21114;-68
2021/05/01 07:03:05;;;;;;;12.45;8.35;;;;;;;16.66;67.05;100151.23;1677716;85;21341;-69
2021/05/01 07:05:34;;;;;;;14.55;9.03;;;;;;;16.69;65.92;100145.22;1677714;85;21218;-70
2021/05/01 07:08:02;;;;;;;13.08;7.65;;;;;;;16.76;65.64;100139.55;1677687;85;21067;-68
2021/05/01 07:10:30;;;;;;;10.60;7.50;;;;;;;16.82;64.99;100139.11;1677716;85;21366;-68
2021/05/01 07:13:00;;;;;;;12.30;7.28;;;;;;;16.93;64.19;100142.41;1671005;85;21078;-67
2021/05/01 07:15:29;;;;;;;12.63;7.85;;;;;;;17.00;62.41;100143.11;1670931;85;21081;-69
2021/05/01 07:17:56;;;;;;;13.80;7.97;;;;;;;17.09;61.95;100145.24;1670982;85;21066;-68
2021/05/01 07:20:25;;;;;;;10.05;7.58;;;;;;;17.20;61.93;100140.74;1670754;86;21302;-66
2021/05/01 07:22:53;;;;;;;12.35;7.45;;;;;;;17.30;61.81;100140.09;1670910;86;21290;-67
2021/05/01 07:25:22;;;;;;;10.23;6.78;;;;;;;17.36;60.63;100133.02;1670470;85;21796;-67
2021/05/01 07:27:56;;;;;;;11.08;6.70;;;;;;;17.45;60.34;100129.30;1670834;86;21143;-69
2021/05/01 07:30:26;;;;;;;13.88;7.78;;;;;;;17.53;60.15;100133.59;1670953;86;21209;-69
2021/05/01 07:32:58;;;;;;;13.62;7.25;;;;;;;17.59;58.14;100126.53;1670949;85;21053;-68
2021/05/01 07:35:25;;;;;;;8.88;5.83;;;;;;;17.65;57.63;100131.62;1670869;85;21062;-69
2021/05/01 07:37:53;;;;;;;8.68;5.83;;;;;;;17.73;57.06;100132.63;1670876;86;21053;-67
2021/05/01 07:40:24;;;;;;;10.68;5.03;;;;;;;17.81;56.23;100130.81;1670864;86;21329;-68
2021/05/01 07:42:52;;;;;;;10.13;5.60;;;;;;;17.89;53.06;100133.16;1670976;85;21213;-66
2021/05/01 07:45:22;;;;;;;7.20;4.37;;;;;;;17.95;52.87;100128.55;1670890;85;21316;-67
2021/05/01 07:47:51;;;;;;;6.08;4.15;;;;;;;17.99;51.28;100126.40;1670673;86;21296;-67
2021/05/01 07:50:23;;;;;;;5.87;4.00;;;;;;;18.05;50.77;100118.45;1640207;87;21155;-69
2021/05/01 07:52:51;;;;;;;6.30;4.20;;;;;;;18.12;49.39;100125.21;1640288;87;21375;-67
2021/05/01 07:55:19;;;;;;;6.22;3.95;;;;;;;18.19;48.69;100122.26;1640303;87;21785;-68
2021/05/01 07:57:47;;;;;;;6.80;4.30;;;;;;;18.26;48.48;100126.56;1640426;87;21089;-69
2021/05/01 08:00:19;;;;;;;5.72;4.22;;;;;;;18.37;48.70;100122.84;1640422;87;21125;-69
2021/05/01 08:02:47;;;;;;;6.47;3.40;;;;;;;18.48;47.95;100121.59;1640372;87;21196;-68
2021/05/01 08:05:18;;;;;;;6.22;4.37;;;;;;;18.60;46.02;100128.70;1640545;87;21137;-68
2021/05/01 08:07:45;;;;;;;6.65;4.10;;;;;;;18.67;46.67;100126.61;1640251;87;21065;-69
2021/05/01 08:10:13;;;;;;;5.40;3.95;;;;;;;18.76;46.31;100137.27;1640330;87;21348;-68
2021/05/01 08:12:41;;;;;;;5.58;4.00;;;;;;;18.85;45.90;100135.71;1644227;87;21303;-69
2021/05/01 08:15:09;;;;;;;6.83;3.27;;;;;;;18.94;44.35;100135.58;1645936;87;21324;-67
2021/05/01 08:17:37;;;;;;;5.33;3.50;;;;;;;19.03;43.00;100140.12;1646050;87;21137;-68
2021/05/01 08:20:08;;;;;;;6.42;3.52;;;;;;;19.11;42.76;100137.72;1615528;88;21248;-69
2021/05/01 08:22:41;;;;;;;8.80;3.25;;;;;;;19.20;41.05;100137.55;1626555;87;21291;-70
2021/05/01 08:25:07;;;;;;;5.25;3.70;;;;;;;19.30;39.99;100147.93;1645631;87;21936;-68
2021/05/01 08:27:34;;;;;;;4.72;3.72;;;;;;;19.36;37.75;100155.77;1645767;87;21312;-68
2021/05/01 08:30:04;;;;;;;6.40;4.25;;;;;;;19.35;38.44;100150.77;1645933;87;21154;-71
2021/05/01 08:32:32;;;;;;;5.25;3.25;;;;;;;19.41;39.66;100146.94;1671436;85;21367;-69
2021/05/01 08:34:59;;;;;;;3.85;3.00;;;;;;;19.48;38.15;100155.06;1655706;85;21354;-66
2021/05/01 08:37:28;;;;;;;4.78;3.50;;;;;;;19.46;35.42;100160.88;1643307;87;21138;-65
2021/05/01 08:39:56;;;;;;;6.35;3.30;;;;;;;19.45;35.86;100159.20;1670096;85;21085;-65
2021/05/01 08:42:24;;;;;;;4.85;3.00;;;;;;;19.51;36.69;100163.75;1669286;85;21409;-68
2021/05/01 08:44:51;;;;;;;10.13;4.50;;;;;;;19.60;37.08;100163.59;1649008;86;21075;-66
2021/05/01 08:47:19;;;;;;;6.03;3.72;;;;;;;19.68;35.91;100169.23;1647769;85;21304;-71
2021/05/01 08:49:47;;;;;;;4.58;3.50;;;;;;;19.74;36.82;100159.83;1646514;85;21350;-68
2021/05/01 08:52:14;;;;;;;6.28;4.30;;;;;;;19.83;36.70;100167.98;1670134;85;21319;-68
2021/05/01 08:54:42;;;;;;;6.37;3.50;;;;;;;19.90;35.56;100165.81;1667662;86;21201;-70
2021/05/01 08:57:27;;;;;;;6.87;3.50;;;;;;;19.97;36.30;100159.19;1667596;85;21367;-70
2021/05/01 08:59:55;;;;;;;6.05;3.45;;;;;;;20.08;36.20;100160.95;1616535;88;21378;-69
2021/05/01 09:02:26;;;;;;;5.78;3.85;;;;;;;20.19;36.04;100162.73;1618024;88;21439;-68
2021/05/01 09:04:53;;;;;;;5.00;3.60;;;;;;;20.21;35.20;100160.52;1644652;87;21113;-71
2021/05/01 09:07:22;;;;;;;4.78;3.30;;;;;;;20.18;34.91;100168.02;1635095;87;21101;-70
2021/05/01 09:09:55;;;;;;;4.20;3.27;;;;;;;20.14;34.75;100162.11;1622858;88;21179;-69
2021/05/01 09:12:42;;;;;;;6.45;3.22;;;;;;;20.16;34.84;100168.28;1642730;84;21417;-70
2021/05/01 09:15:25;;;;;;;4.85;3.10;;;;;;;20.23;34.07;100165.27;1667914;85;21111;-69
2021/05/01 09:18:05;;;;;;;4.12;2.95;;;;;;;20.36;34.48;100177.88;1667720;86;21218;-68
2021/05/01 09:20:34;;;;;;;4.33;3.00;;;;;;;20.39;32.95;100171.26;1655425;85;21110;-70
2021/05/01 09:23:06;;;;;;;4.83;2.75;;;;;;;20.45;32.80;100155.43;1644813;87;21080;-72
2021/05/01 09:25:58;;;;;;;3.20;2.50;;;;;;;20.55;32.45;100161.06;1644593;86;21116;-70
2021/05/01 09:28:27;;;;;;;3.77;2.67;;;;;;;20.63;33.22;100167.51;1643998;85;21103;-68
2021/05/01 09:31:06;;;;;;;4.92;3.37;;;;;;;20.68;32.82;100165.31;1644883;86;21201;-64
2021/05/01 09:33:41;;;;;;;4.15;3.10;;;;;;;20.72;32.93;100169.23;1644894;87;21063;-67
2021/05/01 09:36:23;;;;;;;4.05;3.02;;;;;;;20.81;33.08;100161.51;1644875;85;21397;-64
2021/05/01 09:38:54;;;;;;;6.45;3.20;;;;;;;20.91;32.74;100150.97;1643777;87;21464;-64
2021/05/01 09:41:24;;;;;;;3.95;2.75;;;;;;;21.06;33.20;100156.59;1620285;86;21808;-65
2021/05/01 09:44:14;;;;;;;4.03;3.12;;;;;;;21.16;32.79;100154.41;1647884;87;21908;-66
2021/05/01 09:46:51;;;;;;;5.22;3.30;;;;;;;21.26;33.07;100152.23;1667079;86;21185;-64
2021/05/01 09:49:31;;;;;;;4.35;3.30;;;;;;;21.38;32.59;100156.45;1667188;86;21089;-67
2021/05/01 09:52:08;;;;;;;3.92;2.90;;;;;;;21.45;32.23;100158.97;1667245;86;21114;-67
2021/05/01 09:54:37;;;;;;;;;;;;;;;21.51;31.86;100147.59;1669333;86;21123;-67
2021/05/01 09:57:19;;;;;;;4.50;3.02;;;;;;;21.52;31.88;100145.64;1667127;84;20202;-70
2021/05/01 09:59:51;;;;;;;5.10;3.30;;;;;;;21.53;31.90;100148.71;1667386;84;21091;-65
2021/05/01 10:02:23;;;;;;;4.20;3.42;;;;;;;21.50;31.93;100153.44;1671222;85;21109;-63
2021/05/01 10:05:11;;;;;;;4.85;3.33;;;;;;;21.53;32.70;100145.08;1672380;85;21137;-65
2021/05/01 10:07:50;;;;;;;4.47;3.20;;;;;;;21.59;32.46;100144.81;1667261;86;21285;-65
2021/05/01 10:10:18;;;;;;;6.92;2.70;;;;;;;21.67;32.64;100147.61;1672416;85;21126;-66
2021/05/01 10:12:46;;;;;;;4.15;2.90;;;;;;;21.70;32.18;100146.50;1668366;85;21498;-65
2021/05/01 10:15:19;;;;;;;5.10;3.17;;;;;;;21.72;31.65;100151.24;1660722;86;21189;-68
2021/05/01 10:17:47;;;;;;;5.53;3.55;;;;;;;21.76;30.88;100149.57;1660505;86;21180;-68
2021/05/01 10:20:15;;;;;;;4.35;3.27;;;;;;;21.77;31.09;100152.64;1653813;86;21153;-65
2021/05/01 10:22:47;;;;;;;4.05;2.87;;;;;;;21.82;31.22;100137.86;1644250;87;21268;-65
2021/05/01 10:25:21;;;;;;;6.03;3.17;;;;;;;21.94;30.95;100134.80;1644137;87;21903;-68
2021/05/01 10:28:04;;;;;;;4.62;3.20;;;;;;;22.02;30.55;100141.20;1644296;87;21363;-66
2021/05/01 10:30:34;;;;;;;5.15;3.58;;;;;;;22.07;30.82;100143.47;1643788;87;21261;-71
2021/05/01 10:33:24;;;;;;;5.67;3.95;;;;;;;21.97;30.70;100139.25;1644206;87;21109;-71
2021/05/01 10:36:17;;;;;;;4.80;3.50;;;;;;;21.86;31.53;100131.16;1657645;86;21336;-70
2021/05/01 10:38:46;;;;;;;4.00;3.12;;;;;;;21.89;31.93;100141.20;1660581;86;21216;-70
2021/05/01 10:41:19;;;;;;;5.40;3.52;;;;;;;21.89;31.72;100140.38;1642968;86;21134;-67
2021/05/01 10:43:54;;;;;;;4.60;3.20;;;;;;;21.89;30.86;100136.19;1660810;86;21074;-75
2021/05/01 10:46:30;;;;;;;5.65;3.20;;;;;;;21.92;31.10;100139.25;1660783;86;21838;-65
2021/05/01 10:49:00;;;;;;;5.60;3.00;;;;;;;21.95;31.16;100137.30;1646410;86;21103;-69
2021/05/01 10:51:31;;;;;;;3.95;2.75;;;;;;;22.00;30.92;100144.27;1668741;86;21082;-67
2021/05/01 10:54:14;;;;;;;4.28;3.00;;;;;;;22.09;30.41;100134.81;1621057;87;21749;-66
2021/05/01 10:56:54;;;;;;;4.78;2.87;;;;;;;22.21;30.07;100136.79;1671079;85;21304;-71
2021/05/01 10:59:32;;;;;;;3.67;2.77;;;;;;;22.32;30.20;100132.02;1668632;86;21771;-70
2021/05/01 11:02:01;;;;;;;3.60;2.50;;;;;;;22.51;30.18;100128.91;1643098;87;21894;-68
2021/05/01 11:04:33;;;;;;;5.37;2.67;;;;;;;22.71;30.00;100133.59;1668807;86;21307;-65
2021/05/01 11:07:21;;;;;;;4.22;2.55;;;;;;;22.86;29.45;100132.20;1643269;87;21206;-65
2021/05/01 11:09:49;;;;;;;3.72;2.90;;;;;;;22.97;27.78;100125.45;1671015;85;21288;-66
2021/05/01 11:12:20;;;;;;;3.92;2.60;;;;;;;23.10;28.17;100123.99;1672426;84;21054;-66
2021/05/01 11:15:10;;;;;;;7.42;3.98;;;;;;;23.20;27.89;100128.13;1679099;85;21368;-65
2021/05/01 11:18:05;;;;;;;5.00;3.55;;;;;;;23.22;28.54;100119.45;1679292;85;21046;-65
2021/05/01 11:20:33;;;;;;;3.65;3.10;;;;;;;23.29;28.57;100122.77;1679255;85;21078;-66
2021/05/01 11:23:00;;;;;;;4.65;3.25;;;;;;;23.35;28.80;100120.22;1679023;85;21071;-70
2021/05/01 11:25:37;;;;;;;4.65;3.20;;;;;;;23.45;28.61;100123.54;1679333;84;21046;-74
2021/05/01 11:28:05;;;;;;;5.35;3.30;;;;;;;23.51;28.25;100121.81;1678994;85;21909;-68
2021/05/01 11:30:33;;;;;;;4.90;2.42;;;;;;;23.56;28.39;100117.62;1678793;85;21337;-71
2021/05/01 11:33:02;;;;;;;4.67;2.80;;;;;;;23.62;27.33;100120.66;1678939;85;21280;-68